sensor_id;sensor_type;location;lat;lon;timestamp;P1;durP1;ratioP1;P2;durP2;ratioP2
14992;SDS011;7592;51.088;13.732;2022-08-05T00:01:17;2.30;;;2.20;;
14992;SDS011;7592;51.088;13.732;2022-08-05T00:06:19;3.20;;;2.53;;
14992;SDS011;7592;51.088;13.732;2022-08-05T00:11:22;2.33;;;2.23;;
14992;SDS011;7592;51.088;13.732;2022-08-05T00:16:25;5.07;;;2.60;;
14992;SDS011;7592;51.088;13.732;2022-08-05T00:21:37;2.63;;;2.30;;
14992;SDS011;7592;51.088;13.732;2022-08-05T00:26:33;2.73;;;2.50;;
14992;SDS011;7592;51.088;13.732;2022-08-05T00:31:25;2.97;;;2.70;;
14992;SDS011;7592;51.088;13.732;2022-08-05T00:36:37;3.00;;;2.73;;
14992;SDS011;7592;51.088;13.732;2022-08-05T00:41:49;3.87;;;2.43;;
14992;SDS011;7592;51.088;13.732;2022-08-05T00:46:45;2.90;;;2.70;;
14992;SDS011;7592;51.088;13.732;2022-08-05T00:51:44;4.20;;;2.67;;
14992;SDS011;7592;51.088;13.732;2022-08-05T00:56:42;2.60;;;2.40;;
14992;SDS011;7592;51.088;13.732;2022-08-05T01:01:42;4.63;;;2.63;;
14992;SDS011;7592;51.088;13.732;2022-08-05T01:06:39;3.00;;;2.70;;
14992;SDS011;7592;51.088;13.732;2022-08-05T01:11:34;2.97;;;2.77;;
14992;SDS011;7592;51.088;13.732;2022-08-05T01:16:39;3.67;;;2.90;;
14992;SDS011;7592;51.088;13.732;2022-08-05T01:32:47;2.93;;;2.60;;
14992;SDS011;7592;51.088;13.732;2022-08-05T01:37:45;2.50;;;2.40;;
14992;SDS011;7592;51.088;13.732;2022-08-05T01:42:46;2.57;;;2.47;;
14992;SDS011;7592;51.088;13.732;2022-08-05T01:47:41;2.80;;;2.67;;
14992;SDS011;7592;51.088;13.732;2022-08-05T01:52:38;2.63;;;2.43;;
14992;SDS011;7592;51.088;13.732;2022-08-05T01:57:36;2.60;;;2.50;;
14992;SDS011;7592;51.088;13.732;2022-08-05T02:02:53;4.43;;;3.10;;
14992;SDS011;7592;51.088;13.732;2022-08-05T02:07:48;2.60;;;2.50;;
14992;SDS011;7592;51.088;13.732;2022-08-05T02:12:52;2.57;;;2.47;;
14992;SDS011;7592;51.088;13.732;2022-08-05T02:17:53;3.03;;;2.73;;
14992;SDS011;7592;51.088;13.732;2022-08-05T02:23:27;3.10;;;2.57;;
14992;SDS011;7592;51.088;13.732;2022-08-05T02:28:27;2.73;;;2.53;;
14992;SDS011;7592;51.088;13.732;2022-08-05T02:33:26;2.73;;;2.53;;
14992;SDS011;7592;51.088;13.732;2022-08-05T02:38:29;3.97;;;2.87;;
14992;SDS011;7592;51.088;13.732;2022-08-05T02:43:25;3.00;;;2.70;;
14992;SDS011;7592;51.088;13.732;2022-08-05T02:48:19;3.17;;;2.97;;
14992;SDS011;7592;51.088;13.732;2022-08-05T02:53:20;3.20;;;2.90;;
14992;SDS011;7592;51.088;13.732;2022-08-05T02:58:15;3.57;;;3.33;;
14992;SDS011;7592;51.088;13.732;2022-08-05T03:03:19;2.93;;;2.73;;
14992;SDS011;7592;51.088;13.732;2022-08-05T03:08:14;3.07;;;2.80;;
14992;SDS011;7592;51.088;13.732;2022-08-05T03:13:19;3.20;;;2.90;;
14992;SDS011;7592;51.088;13.732;2022-08-05T03:18:18;7.07;;;3.77;;
14992;SDS011;7592;51.088;13.732;2022-08-05T03:23:20;3.80;;;3.60;;
14992;SDS011;7592;51.088;13.732;2022-08-05T03:28:14;6.30;;;3.80;;
14992;SDS011;7592;51.088;13.732;2022-08-05T03:33:10;4.03;;;3.53;;
14992;SDS011;7592;51.088;13.732;2022-08-05T03:38:02;5.77;;;3.63;;
14992;SDS011;7592;51.088;13.732;2022-08-05T03:42:55;4.97;;;3.57;;
14992;SDS011;7592;51.088;13.732;2022-08-05T03:47:48;3.60;;;3.37;;
14992;SDS011;7592;51.088;13.732;2022-08-05T03:53:04;3.83;;;3.57;;
14992;SDS011;7592;51.088;13.732;2022-08-05T03:58:20;3.73;;;3.53;;
14992;SDS011;7592;51.088;13.732;2022-08-05T04:03:23;6.40;;;4.37;;
14992;SDS011;7592;51.088;13.732;2022-08-05T04:08:19;3.87;;;3.60;;
14992;SDS011;7592;51.088;13.732;2022-08-05T04:13:26;9.70;;;4.30;;
14992;SDS011;7592;51.088;13.732;2022-08-05T04:18:39;9.43;;;4.90;;
14992;SDS011;7592;51.088;13.732;2022-08-05T04:23:33;5.57;;;3.80;;
14992;SDS011;7592;51.088;13.732;2022-08-05T04:28:46;4.17;;;3.73;;
14992;SDS011;7592;51.088;13.732;2022-08-05T04:33:42;5.03;;;3.50;;
14992;SDS011;7592;51.088;13.732;2022-08-05T04:38:54;4.10;;;3.80;;
14992;SDS011;7592;51.088;13.732;2022-08-05T04:43:48;4.77;;;3.77;;
14992;SDS011;7592;51.088;13.732;2022-08-05T04:48:43;5.30;;;3.37;;
14992;SDS011;7592;51.088;13.732;2022-08-05T04:53:36;6.40;;;3.37;;
14992;SDS011;7592;51.088;13.732;2022-08-05T04:58:29;4.30;;;3.97;;
14992;SDS011;7592;51.088;13.732;2022-08-05T05:03:21;7.43;;;3.58;;
14992;SDS011;7592;51.088;13.732;2022-08-05T05:08:13;3.70;;;3.15;;
14992;SDS011;7592;51.088;13.732;2022-08-05T05:13:21;4.65;;;4.18;;
14992;SDS011;7592;51.088;13.732;2022-08-05T05:18:13;6.05;;;3.70;;
14992;SDS011;7592;51.088;13.732;2022-08-05T05:23:23;6.55;;;3.63;;
14992;SDS011;7592;51.088;13.732;2022-08-05T05:28:17;4.10;;;3.65;;
14992;SDS011;7592;51.088;13.732;2022-08-05T05:33:11;4.13;;;3.70;;
14992;SDS011;7592;51.088;13.732;2022-08-05T05:38:07;6.72;;;3.25;;
14992;SDS011;7592;51.088;13.732;2022-08-05T05:43:04;8.43;;;3.58;;
14992;SDS011;7592;51.088;13.732;2022-08-05T05:47:59;6.45;;;3.78;;
14992;SDS011;7592;51.088;13.732;2022-08-05T05:52:57;5.80;;;3.63;;
14992;SDS011;7592;51.088;13.732;2022-08-05T06:02:44;6.88;;;3.45;;
14992;SDS011;7592;51.088;13.732;2022-08-05T06:07:43;6.82;;;3.85;;
14992;SDS011;7592;51.088;13.732;2022-08-05T06:12:52;7.68;;;4.00;;
14992;SDS011;7592;51.088;13.732;2022-08-05T06:17:48;5.13;;;4.18;;
14992;SDS011;7592;51.088;13.732;2022-08-05T06:22:45;6.30;;;4.07;;
14992;SDS011;7592;51.088;13.732;2022-08-05T06:27:38;4.25;;;3.95;;
14992;SDS011;7592;51.088;13.732;2022-08-05T06:32:50;4.07;;;3.78;;
14992;SDS011;7592;51.088;13.732;2022-08-05T06:37:44;8.15;;;4.25;;
14992;SDS011;7592;51.088;13.732;2022-08-05T06:42:53;5.57;;;3.38;;
14992;SDS011;7592;51.088;13.732;2022-08-05T06:47:46;5.15;;;3.47;;
14992;SDS011;7592;51.088;13.732;2022-08-05T06:52:42;5.30;;;3.00;;
14992;SDS011;7592;51.088;13.732;2022-08-05T06:57:49;3.17;;;2.80;;
14992;SDS011;7592;51.088;13.732;2022-08-05T07:03:01;6.22;;;2.45;;
14992;SDS011;7592;51.088;13.732;2022-08-05T07:07:57;6.22;;;3.03;;
14992;SDS011;7592;51.088;13.732;2022-08-05T07:12:50;6.28;;;3.22;;
14992;SDS011;7592;51.088;13.732;2022-08-05T07:18:04;12.32;;;3.40;;
14992;SDS011;7592;51.088;13.732;2022-08-05T07:23:05;5.75;;;3.17;;
14992;SDS011;7592;51.088;13.732;2022-08-05T07:28:03;7.05;;;3.75;;
14992;SDS011;7592;51.088;13.732;2022-08-05T07:33:02;5.78;;;3.53;;
14992;SDS011;7592;51.088;13.732;2022-08-05T07:38:00;4.88;;;3.95;;
14992;SDS011;7592;51.088;13.732;2022-08-05T07:42:52;5.43;;;3.70;;
14992;SDS011;7592;51.088;13.732;2022-08-05T07:47:45;6.93;;;3.70;;
14992;SDS011;7592;51.088;13.732;2022-08-05T07:52:38;8.50;;;4.40;;
14992;SDS011;7592;51.088;13.732;2022-08-05T07:57:31;5.35;;;3.97;;
14992;SDS011;7592;51.088;13.732;2022-08-05T08:02:43;5.05;;;4.05;;
14992;SDS011;7592;51.088;13.732;2022-08-05T08:07:56;7.07;;;4.10;;
14992;SDS011;7592;51.088;13.732;2022-08-05T08:12:50;3.78;;;3.58;;
14992;SDS011;7592;51.088;13.732;2022-08-05T08:17:43;9.38;;;3.97;;
14992;SDS011;7592;51.088;13.732;2022-08-05T08:22:48;4.05;;;3.75;;
14992;SDS011;7592;51.088;13.732;2022-08-05T08:27:42;8.88;;;3.65;;
14992;SDS011;7592;51.088;13.732;2022-08-05T08:32:41;4.30;;;3.53;;
14992;SDS011;7592;51.088;13.732;2022-08-05T08:37:33;4.40;;;3.72;;
14992;SDS011;7592;51.088;13.732;2022-08-05T08:42:27;4.38;;;3.50;;
14992;SDS011;7592;51.088;13.732;2022-08-05T08:47:25;5.07;;;3.47;;
14992;SDS011;7592;51.088;13.732;2022-08-05T08:52:39;10.15;;;3.85;;
14992;SDS011;7592;51.088;13.732;2022-08-05T08:57:42;4.75;;;3.30;;
14992;SDS011;7592;51.088;13.732;2022-08-05T09:02:48;14.40;;;3.92;;
14992;SDS011;7592;51.088;13.732;2022-08-05T09:07:42;5.03;;;3.95;;
14992;SDS011;7592;51.088;13.732;2022-08-05T09:12:47;8.65;;;3.80;;
14992;SDS011;7592;51.088;13.732;2022-08-05T09:17:43;6.32;;;4.00;;
14992;SDS011;7592;51.088;13.732;2022-08-05T09:27:55;9.20;;;3.95;;
14992;SDS011;7592;51.088;13.732;2022-08-05T09:32:59;5.60;;;3.70;;
14992;SDS011;7592;51.088;13.732;2022-08-05T09:37:55;6.20;;;3.72;;
14992;SDS011;7592;51.088;13.732;2022-08-05T09:43:16;7.00;;;4.20;;
14992;SDS011;7592;51.088;13.732;2022-08-05T09:48:32;8.07;;;3.80;;
14992;SDS011;7592;51.088;13.732;2022-08-05T09:53:26;8.60;;;3.95;;
14992;SDS011;7592;51.088;13.732;2022-08-05T09:58:40;8.57;;;4.03;;
14992;SDS011;7592;51.088;13.732;2022-08-05T10:03:33;7.47;;;4.50;;
14992;SDS011;7592;51.088;13.732;2022-08-05T10:08:45;6.20;;;3.85;;
14992;SDS011;7592;51.088;13.732;2022-08-05T10:13:45;5.15;;;4.65;;
14992;SDS011;7592;51.088;13.732;2022-08-05T10:18:39;5.43;;;4.90;;
14992;SDS011;7592;51.088;13.732;2022-08-05T10:23:34;5.63;;;5.10;;
14992;SDS011;7592;51.088;13.732;2022-08-05T10:28:47;5.93;;;5.60;;
14992;SDS011;7592;51.088;13.732;2022-08-05T10:33:40;5.13;;;4.72;;
14992;SDS011;7592;51.088;13.732;2022-08-05T10:38:35;5.80;;;4.97;;
14992;SDS011;7592;51.088;13.732;2022-08-05T10:48:46;5.60;;;4.28;;
14992;SDS011;7592;51.088;13.732;2022-08-05T11:09:42;4.65;;;4.30;;
14992;SDS011;7592;51.088;13.732;2022-08-05T11:14:30;5.38;;;3.95;;
14992;SDS011;7592;51.088;13.732;2022-08-05T11:19:44;5.63;;;4.57;;
14992;SDS011;7592;51.088;13.732;2022-08-05T11:35:57;3.65;;;3.42;;
14992;SDS011;7592;51.088;13.732;2022-08-05T11:41:02;8.98;;;3.97;;
14992;SDS011;7592;51.088;13.732;2022-08-05T11:46:16;13.07;;;4.13;;
14992;SDS011;7592;51.088;13.732;2022-08-05T11:51:23;5.32;;;4.45;;
14992;SDS011;7592;51.088;13.732;2022-08-05T11:56:44;4.20;;;3.90;;
14992;SDS011;7592;51.088;13.732;2022-08-05T12:06:53;4.40;;;4.10;;
14992;SDS011;7592;51.088;13.732;2022-08-05T12:11:49;4.05;;;3.72;;
14992;SDS011;7592;51.088;13.732;2022-08-05T12:16:43;8.57;;;4.47;;
14992;SDS011;7592;51.088;13.732;2022-08-05T12:21:42;4.97;;;3.50;;
14992;SDS011;7592;51.088;13.732;2022-08-05T12:26:43;3.60;;;3.38;;
14992;SDS011;7592;51.088;13.732;2022-08-05T12:31:44;4.00;;;3.80;;
14992;SDS011;7592;51.088;13.732;2022-08-05T12:36:45;3.92;;;3.58;;
14992;SDS011;7592;51.088;13.732;2022-08-05T12:41:39;3.88;;;3.55;;
14992;SDS011;7592;51.088;13.732;2022-08-05T12:46:35;3.22;;;3.00;;
14992;SDS011;7592;51.088;13.732;2022-08-05T12:51:29;4.38;;;3.35;;
14992;SDS011;7592;51.088;13.732;2022-08-05T12:56:46;6.80;;;3.60;;
14992;SDS011;7592;51.088;13.732;2022-08-05T13:01:42;4.25;;;3.80;;
14992;SDS011;7592;51.088;13.732;2022-08-05T13:06:57;5.38;;;3.63;;
14992;SDS011;7592;51.088;13.732;2022-08-05T13:11:55;3.45;;;3.25;;
14992;SDS011;7592;51.088;13.732;2022-08-05T13:17:22;4.78;;;2.85;;
14992;SDS011;7592;51.088;13.732;2022-08-05T13:22:32;4.03;;;3.00;;
14992;SDS011;7592;51.088;13.732;2022-08-05T13:27:27;5.07;;;2.88;;
14992;SDS011;7592;51.088;13.732;2022-08-05T13:32:29;2.42;;;2.25;;
14992;SDS011;7592;51.088;13.732;2022-08-05T13:37:26;4.95;;;3.08;;
14992;SDS011;7592;51.088;13.732;2022-08-05T13:42:25;5.03;;;3.10;;
14992;SDS011;7592;51.088;13.732;2022-08-05T13:47:17;3.20;;;2.60;;
14992;SDS011;7592;51.088;13.732;2022-08-05T13:52:26;2.90;;;2.70;;
14992;SDS011;7592;51.088;13.732;2022-08-05T13:57:20;3.63;;;2.88;;
14992;SDS011;7592;51.088;13.732;2022-08-05T14:02:14;3.42;;;2.63;;
14992;SDS011;7592;51.088;13.732;2022-08-05T14:07:10;3.67;;;2.60;;
14992;SDS011;7592;51.088;13.732;2022-08-05T14:12:22;3.30;;;1.98;;
14992;SDS011;7592;51.088;13.732;2022-08-05T14:17:23;7.70;;;2.63;;
14992;SDS011;7592;51.088;13.732;2022-08-05T14:22:18;2.78;;;2.58;;
14992;SDS011;7592;51.088;13.732;2022-08-05T14:27:12;2.70;;;2.50;;
14992;SDS011;7592;51.088;13.732;2022-08-05T14:32:09;2.70;;;2.50;;
14992;SDS011;7592;51.088;13.732;2022-08-05T14:37:18;5.78;;;3.28;;
14992;SDS011;7592;51.088;13.732;2022-08-05T14:42:13;8.10;;;3.42;;
14992;SDS011;7592;51.088;13.732;2022-08-05T14:47:15;4.53;;;2.22;;
14992;SDS011;7592;51.088;13.732;2022-08-05T14:52:27;3.22;;;3.03;;
14992;SDS011;7592;51.088;13.732;2022-08-05T14:57:40;5.03;;;3.17;;
14992;SDS011;7592;51.088;13.732;2022-08-05T15:02:46;5.63;;;2.90;;
14992;SDS011;7592;51.088;13.732;2022-08-05T15:07:41;3.15;;;2.85;;
14992;SDS011;7592;51.088;13.732;2022-08-05T15:12:53;5.97;;;3.58;;
14992;SDS011;7592;51.088;13.732;2022-08-05T15:17:54;3.25;;;3.05;;
14992;SDS011;7592;51.088;13.732;2022-08-05T15:22:46;4.28;;;2.60;;
14992;SDS011;7592;51.088;13.732;2022-08-05T15:27:45;4.70;;;3.40;;
14992;SDS011;7592;51.088;13.732;2022-08-05T15:32:43;6.60;;;3.25;;
14992;SDS011;7592;51.088;13.732;2022-08-05T15:37:36;2.33;;;2.13;;
14992;SDS011;7592;51.088;13.732;2022-08-05T15:42:48;2.42;;;2.20;;
14992;SDS011;7592;51.088;13.732;2022-08-05T15:47:48;2.47;;;2.38;;
14992;SDS011;7592;51.088;13.732;2022-08-05T15:52:44;2.92;;;2.45;;
14992;SDS011;7592;51.088;13.732;2022-08-05T15:57:44;5.32;;;2.90;;
14992;SDS011;7592;51.088;13.732;2022-08-05T16:02:39;4.65;;;3.78;;
14992;SDS011;7592;51.088;13.732;2022-08-05T16:07:33;17.33;;;3.03;;
14992;SDS011;7592;51.088;13.732;2022-08-05T16:12:25;2.33;;;2.08;;
14992;SDS011;7592;51.088;13.732;2022-08-05T16:17:17;3.50;;;2.30;;
14992;SDS011;7592;51.088;13.732;2022-08-05T16:22:10;4.45;;;3.03;;
14992;SDS011;7592;51.088;13.732;2022-08-05T16:27:05;3.28;;;2.83;;
14992;SDS011;7592;51.088;13.732;2022-08-05T16:31:58;3.90;;;2.85;;
14992;SDS011;7592;51.088;13.732;2022-08-05T16:36:50;2.50;;;2.30;;
14992;SDS011;7592;51.088;13.732;2022-08-05T16:41:43;3.08;;;2.80;;
14992;SDS011;7592;51.088;13.732;2022-08-05T16:46:56;3.28;;;2.38;;
14992;SDS011;7592;51.088;13.732;2022-08-05T16:51:49;3.92;;;2.35;;
14992;SDS011;7592;51.088;13.732;2022-08-05T16:56:47;2.83;;;2.60;;
14992;SDS011;7592;51.088;13.732;2022-08-05T17:01:42;6.32;;;2.30;;
14992;SDS011;7592;51.088;13.732;2022-08-05T17:06:46;4.35;;;3.10;;
14992;SDS011;7592;51.088;13.732;2022-08-05T17:11:44;7.57;;;2.60;;
14992;SDS011;7592;51.088;13.732;2022-08-05T17:16:39;4.00;;;3.00;;
14992;SDS011;7592;51.088;13.732;2022-08-05T17:21:31;3.60;;;2.92;;
14992;SDS011;7592;51.088;13.732;2022-08-05T17:26:27;2.30;;;2.20;;
14992;SDS011;7592;51.088;13.732;2022-08-05T17:31:19;6.13;;;2.30;;
14992;SDS011;7592;51.088;13.732;2022-08-05T17:36:34;4.00;;;2.30;;
14992;SDS011;7592;51.088;13.732;2022-08-05T17:41:31;4.93;;;1.90;;
14992;SDS011;7592;51.088;13.732;2022-08-05T17:46:43;24.27;;;2.67;;
14992;SDS011;7592;51.088;13.732;2022-08-05T17:51:37;17.93;;;2.70;;
14992;SDS011;7592;51.088;13.732;2022-08-05T17:56:31;32.00;;;3.10;;
14992;SDS011;7592;51.088;13.732;2022-08-05T18:01:23;24.90;;;2.70;;
14992;SDS011;7592;51.088;13.732;2022-08-05T18:06:15;11.27;;;2.63;;
14992;SDS011;7592;51.088;13.732;2022-08-05T18:11:07;14.30;;;2.57;;
14992;SDS011;7592;51.088;13.732;2022-08-05T18:16:13;8.80;;;2.47;;
14992;SDS011;7592;51.088;13.732;2022-08-05T18:21:10;4.03;;;2.17;;
14992;SDS011;7592;51.088;13.732;2022-08-05T18:26:09;8.87;;;2.73;;
14992;SDS011;7592;51.088;13.732;2022-08-05T18:31:01;8.83;;;2.50;;
14992;SDS011;7592;51.088;13.732;2022-08-05T18:35:59;5.47;;;2.70;;
14992;SDS011;7592;51.088;13.732;2022-08-05T18:41:05;16.37;;;13.10;;
14992;SDS011;7592;51.088;13.732;2022-08-05T18:46:19;5.03;;;4.13;;
14992;SDS011;7592;51.088;13.732;2022-08-05T18:51:11;6.33;;;4.30;;
14992;SDS011;7592;51.088;13.732;2022-08-05T18:56:41;5.93;;;4.00;;
14992;SDS011;7592;51.088;13.732;2022-08-05T19:01:42;5.47;;;3.77;;
14992;SDS011;7592;51.088;13.732;2022-08-05T19:06:47;5.80;;;4.10;;
14992;SDS011;7592;51.088;13.732;2022-08-05T19:11:39;9.57;;;4.93;;
14992;SDS011;7592;51.088;13.732;2022-08-05T19:16:50;6.90;;;4.63;;
14992;SDS011;7592;51.088;13.732;2022-08-05T19:21:42;5.90;;;5.17;;
14992;SDS011;7592;51.088;13.732;2022-08-05T19:26:35;6.37;;;5.50;;
14992;SDS011;7592;51.088;13.732;2022-08-05T19:31:45;7.90;;;4.90;;
14992;SDS011;7592;51.088;13.732;2022-08-05T19:36:41;4.50;;;4.13;;
14992;SDS011;7592;51.088;13.732;2022-08-05T19:41:37;5.83;;;3.90;;
14992;SDS011;7592;51.088;13.732;2022-08-05T19:46:49;7.17;;;4.03;;
14992;SDS011;7592;51.088;13.732;2022-08-05T19:51:42;5.33;;;4.87;;
14992;SDS011;7592;51.088;13.732;2022-08-05T19:56:59;9.97;;;4.20;;
14992;SDS011;7592;51.088;13.732;2022-08-05T20:02:00;4.17;;;3.80;;
14992;SDS011;7592;51.088;13.732;2022-08-05T20:06:53;3.77;;;3.37;;
14992;SDS011;7592;51.088;13.732;2022-08-05T20:11:46;3.87;;;3.57;;
14992;SDS011;7592;51.088;13.732;2022-08-05T20:16:42;2.93;;;2.73;;
14992;SDS011;7592;51.088;13.732;2022-08-05T20:21:38;2.80;;;2.60;;
14992;SDS011;7592;51.088;13.732;2022-08-05T20:26:33;1.97;;;1.87;;
14992;SDS011;7592;51.088;13.732;2022-08-05T20:31:28;2.17;;;1.97;;
14992;SDS011;7592;51.088;13.732;2022-08-05T20:36:40;1.80;;;1.70;;
14992;SDS011;7592;51.088;13.732;2022-08-05T20:41:34;1.10;;;1.10;;
14992;SDS011;7592;51.088;13.732;2022-08-05T20:46:33;1.63;;;1.20;;
14992;SDS011;7592;51.088;13.732;2022-08-05T20:51:27;2.57;;;0.93;;
14992;SDS011;7592;51.088;13.732;2022-08-05T20:56:22;0.83;;;0.83;;
14992;SDS011;7592;51.088;13.732;2022-08-05T21:01:20;1.40;;;1.23;;
14992;SDS011;7592;51.088;13.732;2022-08-05T21:06:27;1.43;;;1.33;;
14992;SDS011;7592;51.088;13.732;2022-08-05T21:11:20;0.90;;;0.90;;
14992;SDS011;7592;51.088;13.732;2022-08-05T21:16:32;1.10;;;1.10;;
14992;SDS011;7592;51.088;13.732;2022-08-05T21:21:25;0.90;;;0.83;;
14992;SDS011;7592;51.088;13.732;2022-08-05T21:26:34;1.40;;;1.10;;
14992;SDS011;7592;51.088;13.732;2022-08-05T21:31:27;1.47;;;0.97;;
14992;SDS011;7592;51.088;13.732;2022-08-05T21:36:35;3.30;;;0.90;;
14992;SDS011;7592;51.088;13.732;2022-08-05T21:41:27;0.97;;;0.87;;
14992;SDS011;7592;51.088;13.732;2022-08-05T21:46:25;0.83;;;0.73;;
14992;SDS011;7592;51.088;13.732;2022-08-05T21:51:18;2.07;;;0.70;;
14992;SDS011;7592;51.088;13.732;2022-08-05T21:56:31;1.90;;;0.77;;
14992;SDS011;7592;51.088;13.732;2022-08-05T22:01:24;0.70;;;0.70;;
14992;SDS011;7592;51.088;13.732;2022-08-05T22:06:17;2.20;;;0.93;;
14992;SDS011;7592;51.088;13.732;2022-08-05T22:11:25;2.40;;;0.93;;
14992;SDS011;7592;51.088;13.732;2022-08-05T22:16:26;1.27;;;0.80;;
14992;SDS011;7592;51.088;13.732;2022-08-05T22:21:38;1.60;;;0.80;;
14992;SDS011;7592;51.088;13.732;2022-08-05T22:26:33;0.80;;;0.80;;
14992;SDS011;7592;51.088;13.732;2022-08-05T22:31:46;1.20;;;1.10;;
14992;SDS011;7592;51.088;13.732;2022-08-05T22:36:53;3.70;;;1.10;;
14992;SDS011;7592;51.088;13.732;2022-08-05T22:41:45;3.63;;;1.80;;
14992;SDS011;7592;51.088;13.732;2022-08-05T22:46:58;2.20;;;0.90;;
14992;SDS011;7592;51.088;13.732;2022-08-05T22:51:50;2.87;;;1.10;;
14992;SDS011;7592;51.088;13.732;2022-08-05T22:56:58;3.73;;;1.43;;
14992;SDS011;7592;51.088;13.732;2022-08-05T23:01:50;3.67;;;1.23;;
14992;SDS011;7592;51.088;13.732;2022-08-05T23:06:57;1.73;;;1.10;;
14992;SDS011;7592;51.088;13.732;2022-08-05T23:11:49;3.80;;;1.07;;
14992;SDS011;7592;51.088;13.732;2022-08-05T23:16:43;1.90;;;1.20;;
14992;SDS011;7592;51.088;13.732;2022-08-05T23:21:55;2.50;;;1.10;;
14992;SDS011;7592;51.088;13.732;2022-08-05T23:26:52;3.87;;;1.40;;
14992;SDS011;7592;51.088;13.732;2022-08-05T23:31:45;1.07;;;0.97;;
14992;SDS011;7592;51.088;13.732;2022-08-05T23:36:40;1.00;;;0.90;;
14992;SDS011;7592;51.088;13.732;2022-08-05T23:41:35;1.00;;;0.87;;
14992;SDS011;7592;51.088;13.732;2022-08-05T23:46:38;1.43;;;1.00;;
14992;SDS011;7592;51.088;13.732;2022-08-05T23:51:33;2.20;;;0.90;;
14992;SDS011;7592;51.088;13.732;2022-08-05T23:56:45;1.20;;;0.90;;
